sensor_id;sensor_type;location;lat;lon;timestamp;pressure;altitude;pressure_sealevel;temperature;humidity
63009;BME280;49099;28.428;-16.488;2023-08-08T00:00:46;98466.41;;;24.22;67.88
63009;BME280;49099;28.428;-16.488;2023-08-08T00:03:13;98458.97;;;24.18;67.87
63009;BME280;49099;28.428;-16.488;2023-08-08T00:05:40;98465.28;;;24.23;67.94
63009;BME280;49099;28.428;-16.488;2023-08-08T00:08:08;98469.13;;;24.22;67.93
63009;BME280;49099;28.428;-16.488;2023-08-08T00:10:35;98455.06;;;24.16;68.08
63009;BME280;49099;28.428;-16.488;2023-08-08T00:13:02;98456.56;;;24.13;68.13
63009;BME280;49099;28.428;-16.488;2023-08-08T00:15:30;98458.75;;;24.08;68.18
63009;BME280;49099;28.428;-16.488;2023-08-08T00:17:57;98460.94;;;24.02;68.32
63009;BME280;49099;28.428;-16.488;2023-08-08T00:20:24;98454.22;;;23.96;68.49
63009;BME280;49099;28.428;-16.488;2023-08-08T00:22:51;98455.09;;;24.00;68.35
63009;BME280;49099;28.428;-16.488;2023-08-08T00:25:18;98454.22;;;23.96;68.73
63009;BME280;49099;28.428;-16.488;2023-08-08T00:27:45;98452.22;;;23.93;68.48
63009;BME280;49099;28.428;-16.488;2023-08-08T00:30:13;98449.94;;;23.95;68.46
63009;BME280;49099;28.428;-16.488;2023-08-08T00:32:40;98440.41;;;24.01;68.34
63009;BME280;49099;28.428;-16.488;2023-08-08T00:35:07;98435.34;;;24.00;68.52
63009;BME280;49099;28.428;-16.488;2023-08-08T00:37:35;98439.22;;;23.99;68.44
63009;BME280;49099;28.428;-16.488;2023-08-08T00:40:02;98435.25;;;23.96;67.05
63009;BME280;49099;28.428;-16.488;2023-08-08T00:42:29;98431.78;;;23.96;67.22
63009;BME280;49099;28.428;-16.488;2023-08-08T00:44:57;98422.31;;;24.05;67.07
63009;BME280;49099;28.428;-16.488;2023-08-08T00:47:32;98425.88;;;24.09;66.93
63009;BME280;49099;28.428;-16.488;2023-08-08T00:50:00;98420.47;;;24.09;66.47
63009;BME280;49099;28.428;-16.488;2023-08-08T00:52:28;98429.47;;;24.13;65.79
63009;BME280;49099;28.428;-16.488;2023-08-08T00:54:56;98431.72;;;24.11;65.75
63009;BME280;49099;28.428;-16.488;2023-08-08T00:57:23;98430.31;;;24.17;64.93
63009;BME280;49099;28.428;-16.488;2023-08-08T00:59:51;98431.88;;;24.18;63.83
63009;BME280;49099;28.428;-16.488;2023-08-08T01:02:18;98428.75;;;24.16;63.45
63009;BME280;49099;28.428;-16.488;2023-08-08T01:04:45;98430.16;;;24.10;63.95
63009;BME280;49099;28.428;-16.488;2023-08-08T01:10:06;98427.59;;;23.98;62.70
63009;BME280;49099;28.428;-16.488;2023-08-08T01:12:48;98421.28;;;23.94;63.35
63009;BME280;49099;28.428;-16.488;2023-08-08T01:15:17;98416.50;;;23.87;63.32
63009;BME280;49099;28.428;-16.488;2023-08-08T01:17:46;98416.84;;;23.86;63.82
63009;BME280;49099;28.428;-16.488;2023-08-08T01:20:15;98411.00;;;23.84;64.49
63009;BME280;49099;28.428;-16.488;2023-08-08T01:23:14;98402.25;;;23.90;64.93
63009;BME280;49099;28.428;-16.488;2023-08-08T01:25:44;98397.91;;;23.86;65.05
63009;BME280;49099;28.428;-16.488;2023-08-08T01:28:12;98388.81;;;23.78;64.68
63009;BME280;49099;28.428;-16.488;2023-08-08T01:30:40;98395.53;;;23.84;64.44
63009;BME280;49099;28.428;-16.488;2023-08-08T01:33:08;98391.63;;;23.82;64.64
63009;BME280;49099;28.428;-16.488;2023-08-08T01:35:38;98387.78;;;23.83;64.30
63009;BME280;49099;28.428;-16.488;2023-08-08T01:38:19;98383.22;;;23.87;64.37
63009;BME280;49099;28.428;-16.488;2023-08-08T01:40:47;98369.41;;;23.92;64.37
63009;BME280;49099;28.428;-16.488;2023-08-08T01:43:15;98366.69;;;23.92;64.49
63009;BME280;49099;28.428;-16.488;2023-08-08T01:45:43;98364.69;;;23.89;63.96
63009;BME280;49099;28.428;-16.488;2023-08-08T01:48:11;98368.69;;;23.95;63.38
63009;BME280;49099;28.428;-16.488;2023-08-08T01:50:38;98356.28;;;23.94;63.42
63009;BME280;49099;28.428;-16.488;2023-08-08T01:53:05;98360.56;;;23.95;63.02
63009;BME280;49099;28.428;-16.488;2023-08-08T01:55:33;98364.81;;;23.96;63.42
63009;BME280;49099;28.428;-16.488;2023-08-08T01:58:00;98362.56;;;23.98;63.09
63009;BME280;49099;28.428;-16.488;2023-08-08T02:00:27;98356.28;;;23.94;63.46
63009;BME280;49099;28.428;-16.488;2023-08-08T02:02:55;98368.69;;;23.95;62.88
63009;BME280;49099;28.428;-16.488;2023-08-08T02:05:22;98368.78;;;23.99;62.43
63009;BME280;49099;28.428;-16.488;2023-08-08T02:07:49;98368.00;;;23.98;61.53
63009;BME280;49099;28.428;-16.488;2023-08-08T02:10:16;98371.13;;;24.00;61.66
63009;BME280;49099;28.428;-16.488;2023-08-08T02:12:44;98365.91;;;23.92;61.24
63009;BME280;49099;28.428;-16.488;2023-08-08T02:15:11;98370.38;;;23.84;61.77
63009;BME280;49099;28.428;-16.488;2023-08-08T02:17:38;98376.16;;;23.82;62.17
63009;BME280;49099;28.428;-16.488;2023-08-08T02:20:07;98371.38;;;23.76;62.38
63009;BME280;49099;28.428;-16.488;2023-08-08T02:22:34;98365.06;;;23.72;62.21
63009;BME280;49099;28.428;-16.488;2023-08-08T02:25:01;98367.38;;;23.70;62.19
63009;BME280;49099;28.428;-16.488;2023-08-08T02:27:28;98365.06;;;23.72;61.99
63009;BME280;49099;28.428;-16.488;2023-08-08T02:29:56;98362.53;;;23.79;62.16
63009;BME280;49099;28.428;-16.488;2023-08-08T02:32:24;98362.25;;;23.84;60.46
63009;BME280;49099;28.428;-16.488;2023-08-08T02:34:51;98357.69;;;23.88;61.19
63009;BME280;49099;28.428;-16.488;2023-08-08T02:37:18;98356.13;;;23.87;60.42
63009;BME280;49099;28.428;-16.488;2023-08-08T02:39:45;98357.00;;;23.91;60.25
63009;BME280;49099;28.428;-16.488;2023-08-08T02:42:12;98352.88;;;23.97;60.78
63009;BME280;49099;28.428;-16.488;2023-08-08T02:44:40;98346.47;;;24.05;60.95
63009;BME280;49099;28.428;-16.488;2023-08-08T02:47:07;98348.88;;;24.10;60.44
63009;BME280;49099;28.428;-16.488;2023-08-08T02:49:34;98349.59;;;24.07;59.55
63009;BME280;49099;28.428;-16.488;2023-08-08T02:52:02;98344.19;;;24.07;60.81
63009;BME280;49099;28.428;-16.488;2023-08-08T02:54:29;98334.91;;;24.08;59.25
63009;BME280;49099;28.428;-16.488;2023-08-08T02:56:56;98331.78;;;24.06;59.79
63009;BME280;49099;28.428;-16.488;2023-08-08T02:59:23;98334.41;;;24.03;59.23
63009;BME280;49099;28.428;-16.488;2023-08-08T03:01:50;98344.03;;;24.00;59.34
63009;BME280;49099;28.428;-16.488;2023-08-08T03:04:18;98334.75;;;24.01;59.68
63009;BME280;49099;28.428;-16.488;2023-08-08T03:06:45;98330.91;;;24.02;59.29
63009;BME280;49099;28.428;-16.488;2023-08-08T03:09:12;98331.25;;;24.01;58.01
63009;BME280;49099;28.428;-16.488;2023-08-08T03:11:39;98328.56;;;24.01;58.17
63009;BME280;49099;28.428;-16.488;2023-08-08T03:14:08;98333.09;;;23.97;57.30
63009;BME280;49099;28.428;-16.488;2023-08-08T03:16:38;98328.41;;;23.94;57.58
63009;BME280;49099;28.428;-16.488;2023-08-08T03:19:06;98322.16;;;23.89;57.41
63009;BME280;49099;28.428;-16.488;2023-08-08T03:21:33;98324.34;;;23.84;57.12
63009;BME280;49099;28.428;-16.488;2023-08-08T03:24:00;98331.97;;;23.78;57.01
63009;BME280;49099;28.428;-16.488;2023-08-08T03:26:27;98330.38;;;23.77;56.90
63009;BME280;49099;28.428;-16.488;2023-08-08T03:28:55;98330.31;;;23.74;56.99
63009;BME280;49099;28.428;-16.488;2023-08-08T03:31:22;98333.38;;;23.72;57.13
63009;BME280;49099;28.428;-16.488;2023-08-08T03:33:49;98328.31;;;23.71;56.81
63009;BME280;49099;28.428;-16.488;2023-08-08T03:36:16;98331.75;;;23.68;56.80
63009;BME280;49099;28.428;-16.488;2023-08-08T03:38:43;98331.28;;;23.66;56.81
63009;BME280;49099;28.428;-16.488;2023-08-08T03:41:13;98330.16;;;23.67;57.17
63009;BME280;49099;28.428;-16.488;2023-08-08T03:43:40;98334.50;;;23.71;57.22
63009;BME280;49099;28.428;-16.488;2023-08-08T03:46:07;98333.72;;;23.71;57.16
63009;BME280;49099;28.428;-16.488;2023-08-08T03:48:35;98331.81;;;23.71;57.65
63009;BME280;49099;28.428;-16.488;2023-08-08T03:51:03;98331.44;;;23.73;57.68
63009;BME280;49099;28.428;-16.488;2023-08-08T03:53:30;98337.31;;;23.75;57.37
63009;BME280;49099;28.428;-16.488;2023-08-08T03:55:58;98329.50;;;23.73;57.39
63009;BME280;49099;28.428;-16.488;2023-08-08T03:58:25;98331.44;;;23.73;57.20
63009;BME280;49099;28.428;-16.488;2023-08-08T04:00:52;98336.53;;;23.74;57.20
63009;BME280;49099;28.428;-16.488;2023-08-08T04:03:19;98331.91;;;23.75;57.18
63009;BME280;49099;28.428;-16.488;2023-08-08T04:05:47;98335.66;;;23.70;56.90
63009;BME280;49099;28.428;-16.488;2023-08-08T04:08:15;98327.88;;;23.69;56.96
63009;BME280;49099;28.428;-16.488;2023-08-08T04:10:43;98332.88;;;23.67;57.00
63009;BME280;49099;28.428;-16.488;2023-08-08T04:13:10;98327.00;;;23.65;56.78
63009;BME280;49099;28.428;-16.488;2023-08-08T04:15:37;98330.84;;;23.63;57.04
63009;BME280;49099;28.428;-16.488;2023-08-08T04:18:05;98328.66;;;23.69;56.75
63009;BME280;49099;28.428;-16.488;2023-08-08T04:20:35;98338.72;;;23.69;56.69
63009;BME280;49099;28.428;-16.488;2023-08-08T04:23:02;98327.09;;;23.68;56.46
63009;BME280;49099;28.428;-16.488;2023-08-08T04:25:30;98324.03;;;23.70;56.62
63009;BME280;49099;28.428;-16.488;2023-08-08T04:27:57;98329.44;;;23.70;56.35
63009;BME280;49099;28.428;-16.488;2023-08-08T04:30:24;98322.47;;;23.69;56.25
63009;BME280;49099;28.428;-16.488;2023-08-08T04:32:51;98331.75;;;23.68;55.86
63009;BME280;49099;28.428;-16.488;2023-08-08T04:35:18;98327.00;;;23.65;55.94
63009;BME280;49099;28.428;-16.488;2023-08-08T04:37:45;98333.22;;;23.65;55.45
63009;BME280;49099;28.428;-16.488;2023-08-08T04:40:13;98334.00;;;23.66;55.61
63009;BME280;49099;28.428;-16.488;2023-08-08T04:42:40;98335.59;;;23.67;55.60
63009;BME280;49099;28.428;-16.488;2023-08-08T04:45:08;98336.28;;;23.63;55.63
63009;BME280;49099;28.428;-16.488;2023-08-08T04:47:35;98330.06;;;23.63;55.88
63009;BME280;49099;28.428;-16.488;2023-08-08T04:50:02;98336.28;;;23.63;56.08
63009;BME280;49099;28.428;-16.488;2023-08-08T04:52:29;98340.13;;;23.62;56.34
63009;BME280;49099;28.428;-16.488;2023-08-08T04:54:57;98333.94;;;23.62;56.18
63009;BME280;49099;28.428;-16.488;2023-08-08T04:57:24;98345.13;;;23.60;56.25
63009;BME280;49099;28.428;-16.488;2023-08-08T04:59:51;98336.28;;;23.63;56.25
63009;BME280;49099;28.428;-16.488;2023-08-08T05:02:18;98340.91;;;23.63;56.10
63009;BME280;49099;28.428;-16.488;2023-08-08T05:04:45;98345.97;;;23.65;56.26
63009;BME280;49099;28.428;-16.488;2023-08-08T05:07:12;98337.06;;;23.64;55.80
63009;BME280;49099;28.428;-16.488;2023-08-08T05:09:40;98341.69;;;23.63;56.07
63009;BME280;49099;28.428;-16.488;2023-08-08T05:12:08;98328.50;;;23.62;56.34
63009;BME280;49099;28.428;-16.488;2023-08-08T05:14:35;98339.69;;;23.60;56.53
63009;BME280;49099;28.428;-16.488;2023-08-08T05:17:02;98340.47;;;23.61;56.38
63009;BME280;49099;28.428;-16.488;2023-08-08T05:19:30;98338.09;;;23.59;56.29
63009;BME280;49099;28.428;-16.488;2023-08-08T05:21:57;98334.63;;;23.59;56.13
63009;BME280;49099;28.428;-16.488;2023-08-08T05:24:25;98340.13;;;23.62;55.98
63009;BME280;49099;28.428;-16.488;2023-08-08T05:26:52;98337.84;;;23.65;55.77
63009;BME280;49099;28.428;-16.488;2023-08-08T05:29:20;98337.00;;;23.60;55.70
63009;BME280;49099;28.428;-16.488;2023-08-08T05:31:47;98337.78;;;23.61;55.81
63009;BME280;49099;28.428;-16.488;2023-08-08T05:34:14;98334.72;;;23.62;55.35
63009;BME280;49099;28.428;-16.488;2023-08-08T05:36:41;98339.69;;;23.60;55.75
63009;BME280;49099;28.428;-16.488;2023-08-08T05:39:08;98346.22;;;23.59;55.16
63009;BME280;49099;28.428;-16.488;2023-08-08T05:41:36;98347.81;;;23.60;54.70
63009;BME280;49099;28.428;-16.488;2023-08-08T05:44:03;98338.47;;;23.58;55.43
63009;BME280;49099;28.428;-16.488;2023-08-08T05:46:30;98333.69;;;23.51;55.82
63009;BME280;49099;28.428;-16.488;2023-08-08T05:48:58;98346.75;;;23.49;55.13
63009;BME280;49099;28.428;-16.488;2023-08-08T05:51:25;98346.75;;;23.49;54.95
63009;BME280;49099;28.428;-16.488;2023-08-08T05:53:52;98346.75;;;23.49;55.07
63009;BME280;49099;28.428;-16.488;2023-08-08T05:56:20;98349.81;;;23.48;55.06
63009;BME280;49099;28.428;-16.488;2023-08-08T05:58:47;98353.59;;;23.43;55.44
63009;BME280;49099;28.428;-16.488;2023-08-08T06:01:14;98360.13;;;23.42;54.90
63009;BME280;49099;28.428;-16.488;2023-08-08T06:03:42;98357.41;;;23.42;55.58
63009;BME280;49099;28.428;-16.488;2023-08-08T06:06:09;98352.72;;;23.39;55.36
63009;BME280;49099;28.428;-16.488;2023-08-08T06:08:36;98357.41;;;23.42;55.75
63009;BME280;49099;28.428;-16.488;2023-08-08T06:11:03;98353.59;;;23.43;55.30
63009;BME280;49099;28.428;-16.488;2023-08-08T06:13:31;98359.00;;;23.43;55.05
63009;BME280;49099;28.428;-16.488;2023-08-08T06:15:58;98352.81;;;23.43;54.93
63009;BME280;49099;28.428;-16.488;2023-08-08T06:18:25;98353.59;;;23.43;54.38
63009;BME280;49099;28.428;-16.488;2023-08-08T06:20:52;98359.00;;;23.43;54.98
63009;BME280;49099;28.428;-16.488;2023-08-08T06:23:19;98352.00;;;23.42;54.68
63009;BME280;49099;28.428;-16.488;2023-08-08T06:25:46;98355.94;;;23.45;54.88
63009;BME280;49099;28.428;-16.488;2023-08-08T06:28:13;98361.00;;;23.46;55.04
63009;BME280;49099;28.428;-16.488;2023-08-08T06:30:41;98355.53;;;23.43;55.19
63009;BME280;49099;28.428;-16.488;2023-08-08T06:33:08;98362.41;;;23.40;55.12
63009;BME280;49099;28.428;-16.488;2023-08-08T06:35:35;98360.84;;;23.39;55.51
63009;BME280;49099;28.428;-16.488;2023-08-08T06:38:03;98358.84;;;23.36;55.56
63009;BME280;49099;28.428;-16.488;2023-08-08T06:40:30;98361.09;;;23.34;55.81
63009;BME280;49099;28.428;-16.488;2023-08-08T06:42:57;98369.94;;;23.31;55.77
63009;BME280;49099;28.428;-16.488;2023-08-08T06:45:25;98366.09;;;23.32;55.93
63009;BME280;49099;28.428;-16.488;2023-08-08T06:47:52;98373.84;;;23.33;56.21
63009;BME280;49099;28.428;-16.488;2023-08-08T06:50:19;98368.09;;;23.35;56.31
63009;BME280;49099;28.428;-16.488;2023-08-08T06:52:47;98368.09;;;23.35;56.19
63009;BME280;49099;28.428;-16.488;2023-08-08T06:55:14;98364.25;;;23.36;56.12
63009;BME280;49099;28.428;-16.488;2023-08-08T06:57:41;98365.81;;;23.37;55.86
63009;BME280;49099;28.428;-16.488;2023-08-08T07:00:09;98359.97;;;23.35;55.92
63009;BME280;49099;28.428;-16.488;2023-08-08T07:02:40;98368.78;;;23.32;56.25
63009;BME280;49099;28.428;-16.488;2023-08-08T07:05:07;98373.50;;;23.35;56.13
63009;BME280;49099;28.428;-16.488;2023-08-08T07:07:36;98374.31;;;23.35;56.31
63009;BME280;49099;28.428;-16.488;2023-08-08T07:10:04;98378.22;;;23.38;56.23
63009;BME280;49099;28.428;-16.488;2023-08-08T07:12:33;98386.75;;;23.40;56.34
63009;BME280;49099;28.428;-16.488;2023-08-08T07:15:00;98381.78;;;23.42;56.60
63009;BME280;49099;28.428;-16.488;2023-08-08T07:17:28;98387.72;;;23.48;56.29
63009;BME280;49099;28.428;-16.488;2023-08-08T07:19:55;98377.66;;;23.48;56.36
63009;BME280;49099;28.428;-16.488;2023-08-08T07:22:23;98384.66;;;23.49;56.21
63009;BME280;49099;28.428;-16.488;2023-08-08T07:24:50;98389.75;;;23.51;56.11
63009;BME280;49099;28.428;-16.488;2023-08-08T07:27:17;98397.22;;;23.57;56.11
63009;BME280;49099;28.428;-16.488;2023-08-08T07:29:45;98393.50;;;23.62;55.96
63009;BME280;49099;28.428;-16.488;2023-08-08T07:32:12;98394.28;;;23.62;55.61
63009;BME280;49099;28.428;-16.488;2023-08-08T07:34:39;98401.25;;;23.63;55.75
63009;BME280;49099;28.428;-16.488;2023-08-08T07:37:06;98407.56;;;23.68;55.75
63009;BME280;49099;28.428;-16.488;2023-08-08T07:39:33;98403.78;;;23.72;55.55
63009;BME280;49099;28.428;-16.488;2023-08-08T07:42:00;98415.38;;;23.73;55.32
63009;BME280;49099;28.428;-16.488;2023-08-08T07:44:28;98413.47;;;23.73;55.63
63009;BME280;49099;28.428;-16.488;2023-08-08T07:46:55;98420.97;;;23.80;55.72
63009;BME280;49099;28.428;-16.488;2023-08-08T07:49:22;98431.13;;;23.83;55.16
63009;BME280;49099;28.428;-16.488;2023-08-08T07:51:49;98426.47;;;23.83;55.12
63009;BME280;49099;28.428;-16.488;2023-08-08T07:54:16;98442.38;;;23.85;55.31
63009;BME280;49099;28.428;-16.488;2023-08-08T07:56:43;98432.53;;;23.77;55.94
63009;BME280;49099;28.428;-16.488;2023-08-08T07:59:11;98445.63;;;23.75;56.62
63009;BME280;49099;28.428;-16.488;2023-08-08T08:01:38;98454.91;;;23.74;58.00
63009;BME280;49099;28.428;-16.488;2023-08-08T08:04:05;98453.41;;;23.76;58.02
63009;BME280;49099;28.428;-16.488;2023-08-08T08:06:33;98445.81;;;23.82;58.28
63009;BME280;49099;28.428;-16.488;2023-08-08T08:09:00;98445.94;;;23.89;57.91
63009;BME280;49099;28.428;-16.488;2023-08-08T08:11:27;98444.38;;;23.88;57.49
63009;BME280;49099;28.428;-16.488;2023-08-08T08:13:54;98452.06;;;23.86;56.98
63009;BME280;49099;28.428;-16.488;2023-08-08T08:16:21;98451.34;;;23.89;56.75
63009;BME280;49099;28.428;-16.488;2023-08-08T08:18:49;98451.44;;;23.93;56.84
63009;BME280;49099;28.428;-16.488;2023-08-08T08:21:16;98446.66;;;23.86;56.56
63009;BME280;49099;28.428;-16.488;2023-08-08T08:23:46;98454.34;;;23.84;56.81
63009;BME280;49099;28.428;-16.488;2023-08-08T08:26:13;98462.91;;;23.86;56.65
63009;BME280;49099;28.428;-16.488;2023-08-08T08:28:40;98451.03;;;23.90;56.66
63009;BME280;49099;28.428;-16.488;2023-08-08T08:31:07;98454.69;;;23.98;55.89
63009;BME280;49099;28.428;-16.488;2023-08-08T08:33:35;98457.81;;;24.00;55.70
63009;BME280;49099;28.428;-16.488;2023-08-08T08:36:03;98452.41;;;24.00;55.86
63009;BME280;49099;28.428;-16.488;2023-08-08T08:38:30;98456.94;;;23.96;56.03
63009;BME280;49099;28.428;-16.488;2023-08-08T08:40:58;98460.09;;;23.98;55.98
63009;BME280;49099;28.428;-16.488;2023-08-08T08:43:25;98464.72;;;23.98;56.27
63009;BME280;49099;28.428;-16.488;2023-08-08T08:45:53;98465.41;;;23.95;56.30
63009;BME280;49099;28.428;-16.488;2023-08-08T08:48:21;98468.91;;;23.95;56.07
63009;BME280;49099;28.428;-16.488;2023-08-08T08:50:49;98472.84;;;23.98;55.94
63009;BME280;49099;28.428;-16.488;2023-08-08T08:53:17;98472.22;;;24.04;55.66
63009;BME280;49099;28.428;-16.488;2023-08-08T08:55:44;98475.38;;;24.06;55.81
63009;BME280;49099;28.428;-16.488;2023-08-08T08:58:16;98467.31;;;24.10;55.86
63009;BME280;49099;28.428;-16.488;2023-08-08T09:00:46;98471.94;;;24.09;56.07
63009;BME280;49099;28.428;-16.488;2023-08-08T09:03:13;98473.50;;;24.10;55.93
63009;BME280;49099;28.428;-16.488;2023-08-08T09:05:41;98473.25;;;24.15;55.80
63009;BME280;49099;28.428;-16.488;2023-08-08T09:08:09;98472.16;;;24.20;55.54
63009;BME280;49099;28.428;-16.488;2023-08-08T09:10:36;98474.53;;;24.22;56.14
63009;BME280;49099;28.428;-16.488;2023-08-08T09:13:04;98477.25;;;24.22;56.28
63009;BME280;49099;28.428;-16.488;2023-08-08T09:15:32;98473.66;;;24.17;56.29
63009;BME280;49099;28.428;-16.488;2023-08-08T09:18:00;98466.75;;;24.20;56.40
63009;BME280;49099;28.428;-16.488;2023-08-08T09:20:28;98466.84;;;24.24;55.95
63009;BME280;49099;28.428;-16.488;2023-08-08T09:22:56;98467.78;;;24.31;56.19
63009;BME280;49099;28.428;-16.488;2023-08-08T09:25:25;98460.88;;;24.34;55.90
63009;BME280;49099;28.428;-16.488;2023-08-08T09:27:53;98463.97;;;24.32;55.93
63009;BME280;49099;28.428;-16.488;2023-08-08T09:30:20;98468.31;;;24.37;56.12
63009;BME280;49099;28.428;-16.488;2023-08-08T09:32:48;98464.84;;;24.36;55.90
63009;BME280;49099;28.428;-16.488;2023-08-08T09:35:15;98466.41;;;24.37;56.15
63009;BME280;49099;28.428;-16.488;2023-08-08T09:37:43;98471.88;;;24.41;56.48
63009;BME280;49099;28.428;-16.488;2023-08-08T09:40:10;98468.47;;;24.44;56.01
63009;BME280;49099;28.428;-16.488;2023-08-08T09:42:40;98474.59;;;24.41;55.98
63009;BME280;49099;28.428;-16.488;2023-08-08T09:45:08;98474.31;;;24.46;55.43
63009;BME280;49099;28.428;-16.488;2023-08-08T09:47:37;98475.94;;;24.51;56.06
63009;BME280;49099;28.428;-16.488;2023-08-08T09:50:05;98483.75;;;24.52;56.80
63009;BME280;49099;28.428;-16.488;2023-08-08T09:52:33;98486.63;;;24.43;56.70
63009;BME280;49099;28.428;-16.488;2023-08-08T09:55:02;98485.72;;;24.36;56.82
63009;BME280;49099;28.428;-16.488;2023-08-08T09:57:30;98490.34;;;24.35;57.06
63009;BME280;49099;28.428;-16.488;2023-08-08T09:59:59;98491.00;;;24.48;56.53
63009;BME280;49099;28.428;-16.488;2023-08-08T10:02:27;98487.56;;;24.51;56.91
63009;BME280;49099;28.428;-16.488;2023-08-08T10:04:55;98487.72;;;24.58;56.84
63009;BME280;49099;28.428;-16.488;2023-08-08T10:07:24;98492.59;;;24.68;56.29
63009;BME280;49099;28.428;-16.488;2023-08-08T10:09:51;98488.94;;;24.80;56.21
63009;BME280;49099;28.428;-16.488;2023-08-08T10:12:19;98497.88;;;24.81;56.00
63009;BME280;49099;28.428;-16.488;2023-08-08T10:14:47;98487.50;;;24.86;55.30
63009;BME280;49099;28.428;-16.488;2023-08-08T10:17:15;98486.88;;;24.93;54.90
63009;BME280;49099;28.428;-16.488;2023-08-08T10:19:55;98494.38;;;24.99;54.83
63009;BME280;49099;28.428;-16.488;2023-08-08T10:22:24;98490.22;;;25.06;54.79
63009;BME280;49099;28.428;-16.488;2023-08-08T10:24:53;98491.03;;;25.06;54.42
63009;BME280;49099;28.428;-16.488;2023-08-08T10:27:31;98480.28;;;25.13;54.45
63009;BME280;49099;28.428;-16.488;2023-08-08T10:30:04;98488.13;;;25.18;53.15
63009;BME280;49099;28.428;-16.488;2023-08-08T10:32:38;98482.72;;;25.18;53.11
63009;BME280;49099;28.428;-16.488;2023-08-08T10:35:07;98486.28;;;25.22;52.91
63009;BME280;49099;28.428;-16.488;2023-08-08T10:37:36;98486.72;;;25.24;52.87
63009;BME280;49099;28.428;-16.488;2023-08-08T10:40:05;98491.47;;;25.31;52.84
63009;BME280;49099;28.428;-16.488;2023-08-08T10:42:42;98496.25;;;25.38;53.12
63009;BME280;49099;28.428;-16.488;2023-08-08T10:45:11;98498.66;;;25.43;53.40
63009;BME280;49099;28.428;-16.488;2023-08-08T10:47:42;98501.91;;;25.52;53.11
63009;BME280;49099;28.428;-16.488;2023-08-08T10:50:12;98499.50;;;25.47;53.37
63009;BME280;49099;28.428;-16.488;2023-08-08T10:52:54;98510.38;;;25.47;53.42
63009;BME280;49099;28.428;-16.488;2023-08-08T10:55:34;98516.22;;;25.49;53.18
63009;BME280;49099;28.428;-16.488;2023-08-08T11:00:31;98514.47;;;25.60;52.55
63009;BME280;49099;28.428;-16.488;2023-08-08T11:03:00;98509.88;;;25.64;52.28
63009;BME280;49099;28.428;-16.488;2023-08-08T11:05:49;98516.84;;;25.62;51.81
63009;BME280;49099;28.428;-16.488;2023-08-08T11:08:19;98509.75;;;25.57;52.47
63009;BME280;49099;28.428;-16.488;2023-08-08T11:10:52;98515.94;;;25.54;52.46
63009;BME280;49099;28.428;-16.488;2023-08-08T11:13:19;98513.34;;;25.61;53.38
63009;BME280;49099;28.428;-16.488;2023-08-08T11:15:47;98507.59;;;25.66;54.05
63009;BME280;49099;28.428;-16.488;2023-08-08T11:18:14;98506.00;;;25.65;54.13
63009;BME280;49099;28.428;-16.488;2023-08-08T11:20:43;98508.72;;;25.65;54.44
63009;BME280;49099;28.428;-16.488;2023-08-08T11:23:10;98504.31;;;25.57;52.95
63009;BME280;49099;28.428;-16.488;2023-08-08T11:25:43;98508.50;;;25.51;53.77
63009;BME280;49099;28.428;-16.488;2023-08-08T11:28:12;98505.78;;;25.51;54.46
63009;BME280;49099;28.428;-16.488;2023-08-08T11:30:42;98508.03;;;25.45;55.66
63009;BME280;49099;28.428;-16.488;2023-08-08T11:33:13;98509.59;;;25.46;56.93
63009;BME280;49099;28.428;-16.488;2023-08-08T11:35:45;98511.97;;;25.51;56.64
63009;BME280;49099;28.428;-16.488;2023-08-08T11:38:17;98512.69;;;25.45;57.32
63009;BME280;49099;28.428;-16.488;2023-08-08T11:40:44;98509.59;;;25.46;56.97
63009;BME280;49099;28.428;-16.488;2023-08-08T11:43:12;98513.38;;;25.42;57.53
63009;BME280;49099;28.428;-16.488;2023-08-08T11:45:42;98515.25;;;25.38;57.72
63009;BME280;49099;28.428;-16.488;2023-08-08T11:48:09;98513.09;;;25.47;57.78
63009;BME280;49099;28.428;-16.488;2023-08-08T11:50:37;98515.06;;;25.50;57.40
63009;BME280;49099;28.428;-16.488;2023-08-08T11:53:07;98515.16;;;25.53;57.66
63009;BME280;49099;28.428;-16.488;2023-08-08T11:55:36;98526.84;;;25.58;57.46
63009;BME280;49099;28.428;-16.488;2023-08-08T11:58:03;98521.78;;;25.56;57.24
63009;BME280;49099;28.428;-16.488;2023-08-08T12:00:32;98518.66;;;25.54;57.24
63009;BME280;49099;28.428;-16.488;2023-08-08T12:03:01;98524.50;;;25.56;57.21
63009;BME280;49099;28.428;-16.488;2023-08-08T12:05:36;98519.44;;;25.54;58.13
63009;BME280;49099;28.428;-16.488;2023-08-08T12:08:06;98529.50;;;25.54;58.07
63009;BME280;49099;28.428;-16.488;2023-08-08T12:10:34;98523.75;;;25.59;57.90
63009;BME280;49099;28.428;-16.488;2023-08-08T12:13:01;98520.00;;;25.67;57.60
63009;BME280;49099;28.428;-16.488;2023-08-08T12:15:29;98523.09;;;25.66;57.50
63009;BME280;49099;28.428;-16.488;2023-08-08T12:17:58;98523.94;;;25.70;57.35
63009;BME280;49099;28.428;-16.488;2023-08-08T12:20:29;98520.69;;;25.61;57.58
63009;BME280;49099;28.428;-16.488;2023-08-08T12:22:58;98520.75;;;25.64;57.88
63009;BME280;49099;28.428;-16.488;2023-08-08T12:25:26;98518.44;;;25.66;58.13
63009;BME280;49099;28.428;-16.488;2023-08-08T12:27:53;98524.75;;;25.70;57.85
63009;BME280;49099;28.428;-16.488;2023-08-08T12:30:20;98519.31;;;25.70;57.67
63009;BME280;49099;28.428;-16.488;2023-08-08T12:32:47;98521.84;;;25.82;57.23
63009;BME280;49099;28.428;-16.488;2023-08-08T12:35:15;98526.63;;;25.89;57.56
63009;BME280;49099;28.428;-16.488;2023-08-08T12:37:43;98524.56;;;25.82;57.42
63009;BME280;49099;28.428;-16.488;2023-08-08T12:40:11;98525.00;;;25.85;57.88
63009;BME280;49099;28.428;-16.488;2023-08-08T12:42:38;98519.44;;;25.77;57.49
63009;BME280;49099;28.428;-16.488;2023-08-08T12:45:06;98518.09;;;25.91;57.28
63009;BME280;49099;28.428;-16.488;2023-08-08T12:47:34;98516.22;;;25.95;58.09
63009;BME280;49099;28.428;-16.488;2023-08-08T12:50:05;98517.59;;;26.08;58.09